MHLM/SAP METAR and TAF weather

Enter ICAO airport designator
Station Type Date Time Source
MHLM METAR 2020/07/11 17:00 UTC NOAA

MHLM 111700Z 09005KT 040V140 9999 FEW026 33/21 Q1014 A2995


Station Type Date Time Source
MHLM Decoded METAR 2020/07/11 17:00 UTC NOAA

La Mesa San Pedro Sula , Honduras (MHLM) 15-27N 087-56W 31M
Jul 11, 2020 - 01:00 PM EDT / 2020.07.11 1700 UTC
Wind: from the E (090 degrees) at 6 MPH (5 KT) (direction variable):0
Visibility: greater than 7 mile(s):0
Sky conditions: mostly clear
Temperature: 91 F (33 C)
Heat index: 96.1 F (35.6 C):1
Dew Point: 69 F (21 C)
Relative Humidity: 49%
Pressure (altimeter): 29.95 in. Hg (1014 hPa)
ob: MHLM 111700Z 09005KT 040V140 9999 FEW026 33/21 Q1014 A2995
cycle: 17

Station Type Date Time Source
MHLM TAF 2020/07/11 18:43 UTC NOAA

TAF MHLM 111535Z 1118/1218 02012KT 9999 FEW030 TX34/1120Z TN23/1212Z
BECMG 1121/1123 SCT030TCU PROB30
TEMPO 1200/1206 6000 -TSRA SCT030CB
BECMG 1206/1207 23004KT FEW026

Example: see airport list